Map

Track Data

SID SEASON NUMBER BASIN SUBBASIN NAME ISO_TIME NATURE LAT LON WMO_WIND WMO_PRES WMO_AGENCY TRACK_TYPE DIST2LAND LANDFALL IFLAG USA_AGENCY USA_ATCF_ID USA_LAT USA_LON USA_RECORD USA_STATUS USA_WIND USA_PRES USA_SSHS USA_R34_NE USA_R34_SE USA_R34_SW USA_R34_NW USA_R50_NE USA_R50_SE USA_R50_SW USA_R50_NW USA_R64_NE USA_R64_SE USA_R64_SW USA_R64_NW USA_POCI USA_ROCI USA_RMW USA_EYE TOKYO_LAT TOKYO_LON TOKYO_GRADE TOKYO_WIND TOKYO_PRES TOKYO_R50_DIR TOKYO_R50_LONG TOKYO_R50_SHORT TOKYO_R30_DIR TOKYO_R30_LONG TOKYO_R30_SHORT TOKYO_LAND CMA_LAT CMA_LON CMA_CAT CMA_WIND CMA_PRES HKO_LAT HKO_LON HKO_CAT HKO_WIND HKO_PRES NEWDELHI_LAT NEWDELHI_LON NEWDELHI_GRADE NEWDELHI_WIND NEWDELHI_PRES NEWDELHI_CI NEWDELHI_DP NEWDELHI_POCI REUNION_LAT REUNION_LON REUNION_TYPE REUNION_WIND REUNION_PRES REUNION_TNUM REUNION_CI REUNION_RMW REUNION_R34_NE REUNION_R34_SE REUNION_R34_SW REUNION_R34_NW REUNION_R50_NE REUNION_R50_SE REUNION_R50_SW REUNION_R50_NW REUNION_R64_NE REUNION_R64_SE REUNION_R64_SW REUNION_R64_NW BOM_LAT BOM_LON BOM_TYPE BOM_WIND BOM_PRES BOM_TNUM BOM_CI BOM_RMW BOM_R34_NE BOM_R34_SE BOM_R34_SW BOM_R34_NW BOM_R50_NE BOM_R50_SE BOM_R50_SW BOM_R50_NW BOM_R64_NE BOM_R64_SE BOM_R64_SW BOM_R64_NW BOM_ROCI BOM_POCI BOM_EYE BOM_POS_METHOD BOM_PRES_METHOD NADI_LAT NADI_LON NADI_CAT NADI_WIND NADI_PRES WELLINGTON_LAT WELLINGTON_LON WELLINGTON_WIND WELLINGTON_PRES DS824_LAT DS824_LON DS824_STAGE DS824_WIND DS824_PRES TD9636_LAT TD9636_LON TD9636_STAGE TD9636_WIND TD9636_PRES TD9635_LAT TD9635_LON TD9635_WIND TD9635_PRES TD9635_ROCI NEUMANN_LAT NEUMANN_LON NEUMANN_CLASS NEUMANN_WIND NEUMANN_PRES MLC_LAT MLC_LON MLC_CLASS MLC_WIND MLC_PRES USA_GUST BOM_GUST BOM_GUST_PER REUNION_GUST REUNION_GUST_PER USA_SEAHGT USA_SEARAD_NE USA_SEARAD_SE USA_SEARAD_SW USA_SEARAD_NW STORM_SPEED STORM_DIR
2021245N27160 2021 41 WP MM NOT_NAMED 2021-09-02 00:00:00 TS 26.8333 159.633 PROVISIONAL 2028 1991 O_____________ tcvitals WP172021 26.9000 159.700 29 1005 -1 1011 135 80 8 304
2021245N27160 2021 41 WP MM NOT_NAMED 2021-09-02 03:00:00 TS 27.0525 159.276 PROVISIONAL 1985 1948 P_____________ WP172021 27.2514 159.455 -5 1011 135 70 7 308
2021245N27160 2021 41 WP MM NOT_NAMED 2021-09-02 06:00:00 TS 27.2675 159.003 PROVISIONAL 1948 1925 O_____________ tcvitals WP172021 27.6026 159.210 -5 1011 135 60 5 312
2021245N27160 2021 41 WP MM NOT_NAMED 2021-09-02 09:00:00 TS 27.4045 158.843 PROVISIONAL 1925 1907 P_____________ WP172021 27.9536 158.963 -5 1011 135 50 5 331
2021245N27160 2021 41 WP MM NOT_NAMED 2021-09-02 12:00:00 TS 27.6782 158.746 PROVISIONAL 1899 1852 O_____________ tcvitals WP172021 28.3037 158.713 -5 1011 135 40 9 341
2021245N27160 2021 41 WP MM NOT_NAMED 2021-09-02 15:00:00 TS 28.2851 158.506 PROVISIONAL 1847 1782 P_____________ WP172021 28.6519 158.457 -5 1010 142 40 14 340
2021245N27160 2021 41 WP MM NOT_NAMED 2021-09-02 18:00:00 TS 29.0000 158.200 PROVISIONAL 1782 1735 O_____________ tcvightals WP172021 29.0000 158.200 29 1002 -1 1010 150 40 12 333
2021245N27160 2021 41 WP MM NOT_NAMED 2021-09-02 21:00:00 TS 29.3876 157.872 PROVISIONAL 1735 1702 P_____________ WP172021 29.3348 157.904 29 1002 -1 1010 150 40 9 326
2021245N27160 2021 41 WP MM NOT_NAMED 2021-09-03 00:00:00 TS 29.7000 157.650 PROVISIONAL 1702 1674 O_____________ tcvightals WP172021 29.7000 157.700 29 1003 -1 1011 150 40 8 345
2021245N27160 2021 41 WP MM NOT_NAMED 2021-09-03 03:00:00 TS 30.1348 157.646 PROVISIONAL 1674 1663 P_____________ WP172021 30.1348 157.675 29 1002 -1 1011 150 40 9 8
2021245N27160 2021 41 WP MM NOT_NAMED 2021-09-03 06:00:00 TS 30.6000 157.800 PROVISIONAL 1667 1658 O_____________ tcvightals WP172021 30.6000 157.800 29 1002 -1 1011 150 40 9 17
2021245N27160 2021 41 WP MM NOT_NAMED 2021-09-03 09:00:00 TS 31.0120 157.965 PROVISIONAL 1666 1658 P_____________ WP172021 31.0120 157.961 29 1001 -1 1011 150 40 10 25
2021245N27160 2021 41 WP MM NOT_NAMED 2021-09-03 12:00:00 TS 31.5000 158.300 PROVISIONAL 1672 1672 O_____________ tcvightals WP172021 31.5000 158.300 29 1001 -1 1011 150 40 14 35
2021245N27160 2021 41 WP MM NOT_NAMED 2021-09-03 15:00:00 TS 32.1494 158.910 PROVISIONAL 1697 1646 P_____________ WP172021 32.1484 158.926 27 1002 -1 1010 145 42 18 38
2021245N27160 2021 41 WP MM NOT_NAMED 2021-09-03 18:00:00 TS 32.9000 159.600 PROVISIONAL 1646 1591 O_____________ tcvightals WP172021 32.9000 159.600 25 1004 -1 1010 140 45 18 31
2021245N27160 2021 41 WP MM NOT_NAMED 2021-09-03 21:00:00 TS 33.6687 159.981 PROVISIONAL 1586 1530 P_____________ WP172021 33.6687 159.981 22 1005 -1 1010 140 45 17 23
2021245N27160 2021 41 WP MM NOT_NAMED 2021-09-04 00:00:00 NR 34.5000 160.400 PROVISIONAL 1530 1487 O_____________ tcgp WP172021 34.5000 160.400 DB 20 1006 -3 1010 140 45 20 28
2021245N27160 2021 41 WP MM NOT_NAMED 2021-09-04 03:00:00 NR 35.4000 161.117 PROVISIONAL 1484 1446 P_____________ WP172021 35.4000 161.117 DB 20 1006 -3 1010 140 45 22 36
2021245N27160 2021 41 WP MM NOT_NAMED 2021-09-04 06:00:00 NR 36.3000 162.000 PROVISIONAL 1452 1435 O_____________ tcgp WP172021 36.3000 162.000 DB 20 1007 -3 1010 140 45 23 40
2021245N27160 2021 41 WP MM NOT_NAMED 2021-09-04 09:00:00 NR 37.1263 162.937 PROVISIONAL 1436 1428 P_____________ WP172021 37.1263 162.937 DB 20 1007 -3 1010 140 45 22 43
2021245N27160 2021 41 WP MM NOT_NAMED 2021-09-04 12:00:00 NR 37.9000 163.900 PROVISIONAL 1434 O_____________ tcgp WP172021 37.9000 163.900 DB 20 1007 -3 1010 140 45 22 44

Digital Typhoon Data and Search

About IBTrACS Database

This database is a web-friendly format of International Best Track Archive for Climate Stewardship (IBTrACS), a global best track data archive curated by NOAA dating back to 1842.

Updated: 2022-05-13